sensor_id;sensor_type;location;lat;lon;timestamp;P1;durP1;ratioP1;P2;durP2;ratioP2
10517;SDS011;5307;42.548;22.968;2023-03-01T00:01:08;24.30;;;14.48;;
10517;SDS011;5307;42.548;22.968;2023-03-01T00:03:37;25.25;;;14.88;;
10517;SDS011;5307;42.548;22.968;2023-03-01T00:06:04;26.33;;;15.55;;
10517;SDS011;5307;42.548;22.968;2023-03-01T00:08:34;24.67;;;15.10;;
10517;SDS011;5307;42.548;22.968;2023-03-01T00:11:02;22.75;;;15.05;;
10517;SDS011;5307;42.548;22.968;2023-03-01T00:13:30;43.15;;;21.02;;
10517;SDS011;5307;42.548;22.968;2023-03-01T00:15:58;32.80;;;17.92;;
10517;SDS011;5307;42.548;22.968;2023-03-01T00:18:25;27.02;;;12.38;;
10517;SDS011;5307;42.548;22.968;2023-03-01T00:20:53;20.08;;;11.65;;
10517;SDS011;5307;42.548;22.968;2023-03-01T00:23:26;18.88;;;11.40;;
10517;SDS011;5307;42.548;22.968;2023-03-01T00:25:54;16.88;;;10.18;;
10517;SDS011;5307;42.548;22.968;2023-03-01T00:28:21;13.73;;;8.68;;
10517;SDS011;5307;42.548;22.968;2023-03-01T00:30:48;18.95;;;10.32;;
10517;SDS011;5307;42.548;22.968;2023-03-01T00:33:15;17.98;;;9.00;;
10517;SDS011;5307;42.548;22.968;2023-03-01T00:35:42;15.07;;;10.23;;
10517;SDS011;5307;42.548;22.968;2023-03-01T00:38:09;14.95;;;10.15;;
10517;SDS011;5307;42.548;22.968;2023-03-01T00:40:36;16.17;;;11.15;;
10517;SDS011;5307;42.548;22.968;2023-03-01T00:43:04;19.00;;;11.15;;
10517;SDS011;5307;42.548;22.968;2023-03-01T00:45:32;20.05;;;11.00;;
10517;SDS011;5307;42.548;22.968;2023-03-01T00:47:59;17.35;;;10.85;;
10517;SDS011;5307;42.548;22.968;2023-03-01T00:50:26;16.33;;;11.18;;
10517;SDS011;5307;42.548;22.968;2023-03-01T00:52:53;17.20;;;10.95;;
10517;SDS011;5307;42.548;22.968;2023-03-01T00:55:19;15.15;;;10.18;;
10517;SDS011;5307;42.548;22.968;2023-03-01T00:57:46;15.45;;;10.63;;
10517;SDS011;5307;42.548;22.968;2023-03-01T01:00:15;14.77;;;10.75;;
10517;SDS011;5307;42.548;22.968;2023-03-01T01:02:42;16.92;;;9.57;;
10517;SDS011;5307;42.548;22.968;2023-03-01T01:05:09;16.25;;;9.45;;
10517;SDS011;5307;42.548;22.968;2023-03-01T01:07:36;14.05;;;8.65;;
10517;SDS011;5307;42.548;22.968;2023-03-01T01:10:04;14.10;;;9.32;;
10517;SDS011;5307;42.548;22.968;2023-03-01T01:12:32;13.32;;;8.82;;
10517;SDS011;5307;42.548;22.968;2023-03-01T01:14:59;13.82;;;8.85;;
10517;SDS011;5307;42.548;22.968;2023-03-01T01:17:27;14.00;;;9.00;;
10517;SDS011;5307;42.548;22.968;2023-03-01T01:19:54;12.65;;;8.60;;
10517;SDS011;5307;42.548;22.968;2023-03-01T01:22:21;13.95;;;9.13;;
10517;SDS011;5307;42.548;22.968;2023-03-01T01:24:47;11.70;;;8.80;;
10517;SDS011;5307;42.548;22.968;2023-03-01T01:27:14;12.88;;;8.40;;
10517;SDS011;5307;42.548;22.968;2023-03-01T01:29:41;12.27;;;7.82;;
10517;SDS011;5307;42.548;22.968;2023-03-01T01:32:08;12.35;;;8.52;;
10517;SDS011;5307;42.548;22.968;2023-03-01T01:34:36;11.82;;;8.18;;
10517;SDS011;5307;42.548;22.968;2023-03-01T01:37:03;12.05;;;8.23;;
10517;SDS011;5307;42.548;22.968;2023-03-01T01:39:32;14.95;;;7.95;;
10517;SDS011;5307;42.548;22.968;2023-03-01T01:41:59;13.07;;;7.93;;
10517;SDS011;5307;42.548;22.968;2023-03-01T01:44:26;10.63;;;8.10;;
10517;SDS011;5307;42.548;22.968;2023-03-01T01:46:55;10.10;;;7.57;;
10517;SDS011;5307;42.548;22.968;2023-03-01T01:49:27;10.98;;;7.97;;
10517;SDS011;5307;42.548;22.968;2023-03-01T01:52:02;9.05;;;7.35;;
10517;SDS011;5307;42.548;22.968;2023-03-01T01:54:36;11.55;;;8.77;;
10517;SDS011;5307;42.548;22.968;2023-03-01T01:57:09;11.40;;;8.85;;
10517;SDS011;5307;42.548;22.968;2023-03-01T01:59:40;10.98;;;8.48;;
10517;SDS011;5307;42.548;22.968;2023-03-01T02:02:12;9.18;;;7.50;;
10517;SDS011;5307;42.548;22.968;2023-03-01T02:04:39;12.15;;;8.55;;
10517;SDS011;5307;42.548;22.968;2023-03-01T02:07:09;12.63;;;9.35;;
10517;SDS011;5307;42.548;22.968;2023-03-01T02:09:41;12.38;;;9.32;;
10517;SDS011;5307;42.548;22.968;2023-03-01T02:12:11;12.35;;;8.65;;
10517;SDS011;5307;42.548;22.968;2023-03-01T02:14:39;11.40;;;8.70;;
10517;SDS011;5307;42.548;22.968;2023-03-01T02:17:06;11.32;;;8.27;;
10517;SDS011;5307;42.548;22.968;2023-03-01T02:19:37;12.63;;;8.95;;
10517;SDS011;5307;42.548;22.968;2023-03-01T02:22:16;12.60;;;8.90;;
10517;SDS011;5307;42.548;22.968;2023-03-01T02:24:49;11.68;;;8.10;;
10517;SDS011;5307;42.548;22.968;2023-03-01T02:27:28;14.48;;;8.48;;
10517;SDS011;5307;42.548;22.968;2023-03-01T02:30:01;12.68;;;8.02;;
10517;SDS011;5307;42.548;22.968;2023-03-01T02:32:28;13.45;;;7.82;;
10517;SDS011;5307;42.548;22.968;2023-03-01T02:34:54;14.43;;;8.07;;
10517;SDS011;5307;42.548;22.968;2023-03-01T02:37:22;12.75;;;8.40;;
10517;SDS011;5307;42.548;22.968;2023-03-01T02:39:53;12.77;;;9.07;;
10517;SDS011;5307;42.548;22.968;2023-03-01T02:42:26;12.43;;;9.45;;
10517;SDS011;5307;42.548;22.968;2023-03-01T02:44:56;12.65;;;9.57;;
10517;SDS011;5307;42.548;22.968;2023-03-01T02:47:24;13.07;;;9.18;;
10517;SDS011;5307;42.548;22.968;2023-03-01T02:49:51;11.93;;;9.23;;
10517;SDS011;5307;42.548;22.968;2023-03-01T02:55:07;12.32;;;9.20;;
10517;SDS011;5307;42.548;22.968;2023-03-01T02:57:38;10.90;;;8.07;;
10517;SDS011;5307;42.548;22.968;2023-03-01T03:00:08;12.77;;;8.90;;
10517;SDS011;5307;42.548;22.968;2023-03-01T03:02:45;12.30;;;8.88;;
10517;SDS011;5307;42.548;22.968;2023-03-01T03:05:14;15.15;;;10.23;;
10517;SDS011;5307;42.548;22.968;2023-03-01T03:07:43;13.73;;;9.30;;
10517;SDS011;5307;42.548;22.968;2023-03-01T03:10:13;13.48;;;9.65;;
10517;SDS011;5307;42.548;22.968;2023-03-01T03:12:40;14.55;;;10.02;;
10517;SDS011;5307;42.548;22.968;2023-03-01T03:15:09;12.70;;;9.45;;
10517;SDS011;5307;42.548;22.968;2023-03-01T03:17:38;12.90;;;8.98;;
10517;SDS011;5307;42.548;22.968;2023-03-01T03:20:08;15.90;;;10.30;;
10517;SDS011;5307;42.548;22.968;2023-03-01T03:22:37;17.92;;;11.57;;
10517;SDS011;5307;42.548;22.968;2023-03-01T03:25:04;22.50;;;11.27;;
10517;SDS011;5307;42.548;22.968;2023-03-01T03:27:35;14.07;;;9.43;;
10517;SDS011;5307;42.548;22.968;2023-03-01T03:30:03;12.60;;;9.02;;
10517;SDS011;5307;42.548;22.968;2023-03-01T03:32:34;11.98;;;8.30;;
10517;SDS011;5307;42.548;22.968;2023-03-01T03:35:01;16.48;;;7.68;;
10517;SDS011;5307;42.548;22.968;2023-03-01T03:37:35;11.75;;;8.85;;
10517;SDS011;5307;42.548;22.968;2023-03-01T03:40:19;12.38;;;6.63;;
10517;SDS011;5307;42.548;22.968;2023-03-01T03:42:46;12.45;;;5.43;;
10517;SDS011;5307;42.548;22.968;2023-03-01T03:48:00;4.82;;;4.43;;
10517;SDS011;5307;42.548;22.968;2023-03-01T03:50:40;4.32;;;3.92;;
10517;SDS011;5307;42.548;22.968;2023-03-01T03:53:11;3.97;;;3.67;;
10517;SDS011;5307;42.548;22.968;2023-03-01T03:55:44;3.63;;;3.33;;
10517;SDS011;5307;42.548;22.968;2023-03-01T04:00:59;5.78;;;5.15;;
10517;SDS011;5307;42.548;22.968;2023-03-01T04:03:44;6.32;;;5.70;;
10517;SDS011;5307;42.548;22.968;2023-03-01T04:06:11;7.88;;;6.65;;
10517;SDS011;5307;42.548;22.968;2023-03-01T04:08:40;7.68;;;6.88;;
10517;SDS011;5307;42.548;22.968;2023-03-01T04:11:07;8.27;;;7.05;;
10517;SDS011;5307;42.548;22.968;2023-03-01T04:13:53;8.10;;;7.25;;
10517;SDS011;5307;42.548;22.968;2023-03-01T04:16:21;8.43;;;7.47;;
10517;SDS011;5307;42.548;22.968;2023-03-01T04:18:48;8.10;;;7.13;;
10517;SDS011;5307;42.548;22.968;2023-03-01T04:21:17;7.75;;;6.95;;
10517;SDS011;5307;42.548;22.968;2023-03-01T04:23:46;7.40;;;6.60;;
10517;SDS011;5307;42.548;22.968;2023-03-01T04:26:13;7.60;;;6.57;;
10517;SDS011;5307;42.548;22.968;2023-03-01T04:28:40;11.25;;;8.80;;
10517;SDS011;5307;42.548;22.968;2023-03-01T04:31:11;7.38;;;6.57;;
10517;SDS011;5307;42.548;22.968;2023-03-01T04:33:40;7.10;;;6.40;;
10517;SDS011;5307;42.548;22.968;2023-03-01T04:36:08;9.10;;;7.55;;
10517;SDS011;5307;42.548;22.968;2023-03-01T04:38:36;8.95;;;7.25;;
10517;SDS011;5307;42.548;22.968;2023-03-01T04:41:05;6.95;;;6.22;;
10517;SDS011;5307;42.548;22.968;2023-03-01T04:43:33;8.50;;;6.70;;
10517;SDS011;5307;42.548;22.968;2023-03-01T04:46:01;8.48;;;6.65;;
10517;SDS011;5307;42.548;22.968;2023-03-01T04:48:29;6.93;;;6.22;;
10517;SDS011;5307;42.548;22.968;2023-03-01T04:50:57;8.68;;;7.35;;
10517;SDS011;5307;42.548;22.968;2023-03-01T04:53:24;7.97;;;6.72;;
10517;SDS011;5307;42.548;22.968;2023-03-01T04:55:53;8.18;;;7.30;;
10517;SDS011;5307;42.548;22.968;2023-03-01T04:58:22;9.07;;;7.53;;
10517;SDS011;5307;42.548;22.968;2023-03-01T05:00:49;8.10;;;6.80;;
10517;SDS011;5307;42.548;22.968;2023-03-01T05:03:16;8.98;;;6.50;;
10517;SDS011;5307;42.548;22.968;2023-03-01T05:05:44;9.80;;;7.28;;
10517;SDS011;5307;42.548;22.968;2023-03-01T05:08:11;10.00;;;7.43;;
10517;SDS011;5307;42.548;22.968;2023-03-01T05:10:43;9.23;;;7.63;;
10517;SDS011;5307;42.548;22.968;2023-03-01T05:13:11;9.00;;;7.68;;
10517;SDS011;5307;42.548;22.968;2023-03-01T05:15:41;11.45;;;7.68;;
10517;SDS011;5307;42.548;22.968;2023-03-01T05:18:08;8.75;;;6.93;;
10517;SDS011;5307;42.548;22.968;2023-03-01T05:20:36;9.18;;;7.25;;
10517;SDS011;5307;42.548;22.968;2023-03-01T05:23:04;8.85;;;6.82;;
10517;SDS011;5307;42.548;22.968;2023-03-01T05:25:31;7.68;;;6.43;;
10517;SDS011;5307;42.548;22.968;2023-03-01T05:27:59;8.98;;;6.70;;
10517;SDS011;5307;42.548;22.968;2023-03-01T05:30:29;11.05;;;7.57;;
10517;SDS011;5307;42.548;22.968;2023-03-01T05:32:59;13.77;;;8.68;;
10517;SDS011;5307;42.548;22.968;2023-03-01T05:35:26;9.90;;;7.45;;
10517;SDS011;5307;42.548;22.968;2023-03-01T05:37:54;11.18;;;7.70;;
10517;SDS011;5307;42.548;22.968;2023-03-01T05:40:22;10.15;;;7.40;;
10517;SDS011;5307;42.548;22.968;2023-03-01T05:42:50;13.27;;;6.95;;
10517;SDS011;5307;42.548;22.968;2023-03-01T05:45:18;7.18;;;6.22;;
10517;SDS011;5307;42.548;22.968;2023-03-01T05:47:46;9.25;;;6.20;;
10517;SDS011;5307;42.548;22.968;2023-03-01T05:50:16;8.88;;;6.32;;
10517;SDS011;5307;42.548;22.968;2023-03-01T05:52:45;6.93;;;6.05;;
10517;SDS011;5307;42.548;22.968;2023-03-01T05:55:13;8.05;;;6.10;;
10517;SDS011;5307;42.548;22.968;2023-03-01T05:57:41;6.72;;;5.93;;
10517;SDS011;5307;42.548;22.968;2023-03-01T06:00:09;6.22;;;5.63;;
10517;SDS011;5307;42.548;22.968;2023-03-01T06:02:37;6.00;;;5.40;;
10517;SDS011;5307;42.548;22.968;2023-03-01T06:05:04;6.25;;;5.68;;
10517;SDS011;5307;42.548;22.968;2023-03-01T06:07:33;6.15;;;5.55;;
10517;SDS011;5307;42.548;22.968;2023-03-01T06:10:00;9.38;;;6.88;;
10517;SDS011;5307;42.548;22.968;2023-03-01T06:12:29;7.20;;;6.40;;
10517;SDS011;5307;42.548;22.968;2023-03-01T06:14:57;7.80;;;6.65;;
10517;SDS011;5307;42.548;22.968;2023-03-01T06:17:23;7.13;;;6.43;;
10517;SDS011;5307;42.548;22.968;2023-03-01T06:19:50;6.40;;;5.63;;
10517;SDS011;5307;42.548;22.968;2023-03-01T06:22:17;6.68;;;6.05;;
10517;SDS011;5307;42.548;22.968;2023-03-01T06:24:45;6.50;;;5.90;;
10517;SDS011;5307;42.548;22.968;2023-03-01T06:27:12;6.88;;;6.18;;
10517;SDS011;5307;42.548;22.968;2023-03-01T06:29:42;7.30;;;6.53;;
10517;SDS011;5307;42.548;22.968;2023-03-01T06:32:09;7.60;;;6.47;;
10517;SDS011;5307;42.548;22.968;2023-03-01T06:34:36;8.50;;;6.47;;
10517;SDS011;5307;42.548;22.968;2023-03-01T06:37:03;7.15;;;6.45;;
10517;SDS011;5307;42.548;22.968;2023-03-01T06:39:30;8.65;;;7.13;;
10517;SDS011;5307;42.548;22.968;2023-03-01T06:41:58;10.30;;;7.10;;
10517;SDS011;5307;42.548;22.968;2023-03-01T06:44:25;9.77;;;6.60;;
10517;SDS011;5307;42.548;22.968;2023-03-01T06:46:52;7.05;;;6.15;;
10517;SDS011;5307;42.548;22.968;2023-03-01T06:49:19;9.75;;;7.15;;
10517;SDS011;5307;42.548;22.968;2023-03-01T06:51:46;8.77;;;6.93;;
10517;SDS011;5307;42.548;22.968;2023-03-01T06:54:13;11.07;;;7.85;;
10517;SDS011;5307;42.548;22.968;2023-03-01T06:56:40;9.10;;;7.53;;
10517;SDS011;5307;42.548;22.968;2023-03-01T06:59:08;7.55;;;6.75;;
10517;SDS011;5307;42.548;22.968;2023-03-01T07:01:35;7.65;;;6.53;;
10517;SDS011;5307;42.548;22.968;2023-03-01T07:04:02;7.95;;;7.03;;
10517;SDS011;5307;42.548;22.968;2023-03-01T07:06:28;8.30;;;7.35;;
10517;SDS011;5307;42.548;22.968;2023-03-01T07:08:55;9.35;;;7.65;;
10517;SDS011;5307;42.548;22.968;2023-03-01T07:11:22;9.57;;;7.15;;
10517;SDS011;5307;42.548;22.968;2023-03-01T07:13:49;11.70;;;8.13;;
10517;SDS011;5307;42.548;22.968;2023-03-01T07:16:17;8.93;;;7.75;;
10517;SDS011;5307;42.548;22.968;2023-03-01T07:18:45;11.48;;;8.27;;
10517;SDS011;5307;42.548;22.968;2023-03-01T07:21:14;8.50;;;7.60;;
10517;SDS011;5307;42.548;22.968;2023-03-01T07:23:41;9.95;;;7.63;;
10517;SDS011;5307;42.548;22.968;2023-03-01T07:26:08;10.70;;;8.05;;
10517;SDS011;5307;42.548;22.968;2023-03-01T07:28:35;12.38;;;8.80;;
10517;SDS011;5307;42.548;22.968;2023-03-01T07:31:04;10.07;;;8.18;;
10517;SDS011;5307;42.548;22.968;2023-03-01T07:33:32;10.35;;;6.57;;
10517;SDS011;5307;42.548;22.968;2023-03-01T07:36:01;10.40;;;8.05;;
10517;SDS011;5307;42.548;22.968;2023-03-01T07:38:29;9.52;;;7.53;;
10517;SDS011;5307;42.548;22.968;2023-03-01T07:40:57;9.95;;;7.63;;
10517;SDS011;5307;42.548;22.968;2023-03-01T07:43:26;10.70;;;8.82;;
10517;SDS011;5307;42.548;22.968;2023-03-01T07:45:53;12.10;;;8.65;;
10517;SDS011;5307;42.548;22.968;2023-03-01T07:48:19;10.05;;;8.95;;
10517;SDS011;5307;42.548;22.968;2023-03-01T07:50:48;11.48;;;8.95;;
10517;SDS011;5307;42.548;22.968;2023-03-01T07:53:14;14.88;;;9.77;;
10517;SDS011;5307;42.548;22.968;2023-03-01T07:55:41;11.85;;;8.70;;
10517;SDS011;5307;42.548;22.968;2023-03-01T07:58:08;14.63;;;10.55;;
10517;SDS011;5307;42.548;22.968;2023-03-01T08:00:35;11.07;;;9.38;;
10517;SDS011;5307;42.548;22.968;2023-03-01T08:03:02;11.70;;;10.25;;
10517;SDS011;5307;42.548;22.968;2023-03-01T08:05:29;11.20;;;8.82;;
10517;SDS011;5307;42.548;22.968;2023-03-01T08:07:57;11.93;;;9.77;;
10517;SDS011;5307;42.548;22.968;2023-03-01T08:10:24;15.82;;;10.68;;
10517;SDS011;5307;42.548;22.968;2023-03-01T08:12:51;13.98;;;9.27;;
10517;SDS011;5307;42.548;22.968;2023-03-01T08:15:19;13.00;;;10.13;;
10517;SDS011;5307;42.548;22.968;2023-03-01T08:17:46;12.50;;;9.77;;
10517;SDS011;5307;42.548;22.968;2023-03-01T08:20:15;11.23;;;9.50;;
10517;SDS011;5307;42.548;22.968;2023-03-01T08:22:42;15.10;;;11.18;;
10517;SDS011;5307;42.548;22.968;2023-03-01T08:25:10;15.32;;;12.32;;
10517;SDS011;5307;42.548;22.968;2023-03-01T08:27:37;14.82;;;9.73;;
10517;SDS011;5307;42.548;22.968;2023-03-01T08:30:04;16.48;;;11.05;;
10517;SDS011;5307;42.548;22.968;2023-03-01T08:32:34;13.82;;;10.75;;
10517;SDS011;5307;42.548;22.968;2023-03-01T08:35:02;17.45;;;11.70;;
10517;SDS011;5307;42.548;22.968;2023-03-01T08:37:29;20.75;;;12.80;;
10517;SDS011;5307;42.548;22.968;2023-03-01T08:39:57;21.52;;;12.75;;
10517;SDS011;5307;42.548;22.968;2023-03-01T08:42:26;32.05;;;16.67;;
10517;SDS011;5307;42.548;22.968;2023-03-01T08:44:53;15.98;;;11.18;;
10517;SDS011;5307;42.548;22.968;2023-03-01T08:47:19;72.55;;;28.30;;
10517;SDS011;5307;42.548;22.968;2023-03-01T08:49:46;140.82;;;53.53;;
10517;SDS011;5307;42.548;22.968;2023-03-01T08:52:13;72.95;;;31.67;;
10517;SDS011;5307;42.548;22.968;2023-03-01T08:54:40;136.32;;;52.63;;
10517;SDS011;5307;42.548;22.968;2023-03-01T08:57:06;34.00;;;17.35;;
10517;SDS011;5307;42.548;22.968;2023-03-01T08:59:36;23.80;;;11.85;;
10517;SDS011;5307;42.548;22.968;2023-03-01T09:02:03;52.22;;;28.90;;
10517;SDS011;5307;42.548;22.968;2023-03-01T09:04:30;18.13;;;12.32;;
10517;SDS011;5307;42.548;22.968;2023-03-01T09:06:57;27.95;;;17.55;;
10517;SDS011;5307;42.548;22.968;2023-03-01T09:09:24;33.50;;;19.35;;
10517;SDS011;5307;42.548;22.968;2023-03-01T09:11:51;53.97;;;29.05;;
10517;SDS011;5307;42.548;22.968;2023-03-01T09:14:18;42.55;;;23.23;;
10517;SDS011;5307;42.548;22.968;2023-03-01T09:16:46;64.57;;;30.73;;
10517;SDS011;5307;42.548;22.968;2023-03-01T09:19:13;52.47;;;25.70;;
10517;SDS011;5307;42.548;22.968;2023-03-01T09:21:40;28.25;;;18.25;;
10517;SDS011;5307;42.548;22.968;2023-03-01T09:24:17;22.08;;;13.45;;
10517;SDS011;5307;42.548;22.968;2023-03-01T09:26:45;26.00;;;16.40;;
10517;SDS011;5307;42.548;22.968;2023-03-01T09:29:15;23.33;;;13.60;;
10517;SDS011;5307;42.548;22.968;2023-03-01T09:31:42;16.45;;;11.68;;
10517;SDS011;5307;42.548;22.968;2023-03-01T09:34:10;17.33;;;11.95;;
10517;SDS011;5307;42.548;22.968;2023-03-01T09:36:40;21.95;;;13.80;;
10517;SDS011;5307;42.548;22.968;2023-03-01T09:39:07;38.05;;;21.10;;
10517;SDS011;5307;42.548;22.968;2023-03-01T09:41:37;28.63;;;16.52;;
10517;SDS011;5307;42.548;22.968;2023-03-01T09:44:25;41.05;;;23.15;;
10517;SDS011;5307;42.548;22.968;2023-03-01T09:46:57;32.85;;;15.45;;
10517;SDS011;5307;42.548;22.968;2023-03-01T09:49:27;31.50;;;17.95;;
10517;SDS011;5307;42.548;22.968;2023-03-01T09:51:58;25.73;;;15.90;;
10517;SDS011;5307;42.548;22.968;2023-03-01T09:54:29;30.33;;;17.48;;
10517;SDS011;5307;42.548;22.968;2023-03-01T09:57:02;37.85;;;22.92;;
10517;SDS011;5307;42.548;22.968;2023-03-01T09:59:36;21.35;;;13.75;;
10517;SDS011;5307;42.548;22.968;2023-03-01T10:02:20;20.88;;;12.65;;
10517;SDS011;5307;42.548;22.968;2023-03-01T10:04:52;28.30;;;15.57;;
10517;SDS011;5307;42.548;22.968;2023-03-01T10:07:23;42.88;;;22.58;;
10517;SDS011;5307;42.548;22.968;2023-03-01T10:09:56;28.38;;;17.70;;
10517;SDS011;5307;42.548;22.968;2023-03-01T10:12:27;21.50;;;13.10;;
10517;SDS011;5307;42.548;22.968;2023-03-01T10:15:02;19.00;;;12.68;;
10517;SDS011;5307;42.548;22.968;2023-03-01T10:17:37;26.58;;;14.43;;
10517;SDS011;5307;42.548;22.968;2023-03-01T10:20:19;21.92;;;12.63;;
10517;SDS011;5307;42.548;22.968;2023-03-01T10:22:47;29.75;;;16.65;;
10517;SDS011;5307;42.548;22.968;2023-03-01T10:25:29;25.77;;;15.55;;
10517;SDS011;5307;42.548;22.968;2023-03-01T10:28:09;20.67;;;13.00;;
10517;SDS011;5307;42.548;22.968;2023-03-01T10:30:41;22.08;;;12.43;;
10517;SDS011;5307;42.548;22.968;2023-03-01T10:33:12;29.23;;;14.77;;
10517;SDS011;5307;42.548;22.968;2023-03-01T10:35:44;26.13;;;13.98;;
10517;SDS011;5307;42.548;22.968;2023-03-01T10:38:12;26.60;;;15.10;;
10517;SDS011;5307;42.548;22.968;2023-03-01T10:40:50;21.90;;;13.98;;
10517;SDS011;5307;42.548;22.968;2023-03-01T10:43:19;21.88;;;12.60;;
10517;SDS011;5307;42.548;22.968;2023-03-01T10:45:47;29.05;;;14.43;;
10517;SDS011;5307;42.548;22.968;2023-03-01T10:48:15;27.98;;;15.80;;
10517;SDS011;5307;42.548;22.968;2023-03-01T10:50:45;19.02;;;12.35;;
10517;SDS011;5307;42.548;22.968;2023-03-01T10:53:20;16.52;;;10.48;;
10517;SDS011;5307;42.548;22.968;2023-03-01T10:55:56;26.30;;;13.27;;
10517;SDS011;5307;42.548;22.968;2023-03-01T10:58:25;36.53;;;18.27;;
10517;SDS011;5307;42.548;22.968;2023-03-01T11:00:53;29.48;;;14.25;;
10517;SDS011;5307;42.548;22.968;2023-03-01T11:03:23;52.03;;;21.70;;
10517;SDS011;5307;42.548;22.968;2023-03-01T11:05:53;24.38;;;13.73;;
10517;SDS011;5307;42.548;22.968;2023-03-01T11:08:35;14.50;;;10.07;;
10517;SDS011;5307;42.548;22.968;2023-03-01T11:13:52;21.30;;;12.10;;
10517;SDS011;5307;42.548;22.968;2023-03-01T11:19:15;16.48;;;10.15;;
10517;SDS011;5307;42.548;22.968;2023-03-01T11:21:51;21.48;;;11.88;;
10517;SDS011;5307;42.548;22.968;2023-03-01T11:24:24;22.05;;;12.77;;
10517;SDS011;5307;42.548;22.968;2023-03-01T11:26:56;24.45;;;14.63;;
10517;SDS011;5307;42.548;22.968;2023-03-01T11:29:30;20.60;;;11.80;;
10517;SDS011;5307;42.548;22.968;2023-03-01T11:32:02;20.40;;;12.73;;
10517;SDS011;5307;42.548;22.968;2023-03-01T11:34:38;19.15;;;10.90;;
10517;SDS011;5307;42.548;22.968;2023-03-01T11:37:14;15.50;;;10.30;;
10517;SDS011;5307;42.548;22.968;2023-03-01T11:39:51;14.35;;;9.18;;
10517;SDS011;5307;42.548;22.968;2023-03-01T11:42:28;14.45;;;10.38;;
10517;SDS011;5307;42.548;22.968;2023-03-01T11:45:06;16.05;;;10.68;;
10517;SDS011;5307;42.548;22.968;2023-03-01T11:47:50;15.65;;;10.65;;
10517;SDS011;5307;42.548;22.968;2023-03-01T11:50:30;15.98;;;9.05;;
10517;SDS011;5307;42.548;22.968;2023-03-01T11:53:09;12.68;;;9.20;;
10517;SDS011;5307;42.548;22.968;2023-03-01T11:55:59;12.18;;;9.18;;
10517;SDS011;5307;42.548;22.968;2023-03-01T11:58:36;15.32;;;10.05;;
10517;SDS011;5307;42.548;22.968;2023-03-01T12:01:21;17.80;;;12.48;;
10517;SDS011;5307;42.548;22.968;2023-03-01T12:04:03;16.08;;;11.10;;
10517;SDS011;5307;42.548;22.968;2023-03-01T12:06:50;12.18;;;9.30;;
10517;SDS011;5307;42.548;22.968;2023-03-01T12:09:27;14.65;;;9.07;;
10517;SDS011;5307;42.548;22.968;2023-03-01T12:12:25;14.35;;;9.23;;
10517;SDS011;5307;42.548;22.968;2023-03-01T12:15:11;9.95;;;7.78;;
10517;SDS011;5307;42.548;22.968;2023-03-01T12:18:07;12.95;;;8.73;;
10517;SDS011;5307;42.548;22.968;2023-03-01T12:21:01;17.42;;;9.60;;
10517;SDS011;5307;42.548;22.968;2023-03-01T12:26:43;14.05;;;9.10;;
10517;SDS011;5307;42.548;22.968;2023-03-01T12:29:25;17.15;;;8.98;;
10517;SDS011;5307;42.548;22.968;2023-03-01T12:32:00;14.45;;;9.63;;
10517;SDS011;5307;42.548;22.968;2023-03-01T12:35:03;18.92;;;11.15;;
10517;SDS011;5307;42.548;22.968;2023-03-01T12:37:42;13.68;;;9.18;;
10517;SDS011;5307;42.548;22.968;2023-03-01T12:40:33;20.15;;;13.15;;
10517;SDS011;5307;42.548;22.968;2023-03-01T12:43:25;40.10;;;22.65;;
10517;SDS011;5307;42.548;22.968;2023-03-01T12:46:04;19.40;;;10.27;;
10517;SDS011;5307;42.548;22.968;2023-03-01T12:48:43;16.30;;;9.48;;
10517;SDS011;5307;42.548;22.968;2023-03-01T12:51:22;17.08;;;10.60;;
10517;SDS011;5307;42.548;22.968;2023-03-01T12:53:51;21.92;;;13.57;;
10517;SDS011;5307;42.548;22.968;2023-03-01T12:56:22;23.48;;;11.80;;
10517;SDS011;5307;42.548;22.968;2023-03-01T12:58:54;12.93;;;8.93;;
10517;SDS011;5307;42.548;22.968;2023-03-01T13:01:32;17.60;;;10.05;;
10517;SDS011;5307;42.548;22.968;2023-03-01T13:06:58;17.25;;;9.80;;
10517;SDS011;5307;42.548;22.968;2023-03-01T13:09:35;21.23;;;12.30;;
10517;SDS011;5307;42.548;22.968;2023-03-01T13:15:27;11.65;;;8.10;;
10517;SDS011;5307;42.548;22.968;2023-03-01T13:17:59;12.20;;;8.93;;
10517;SDS011;5307;42.548;22.968;2023-03-01T13:20:29;20.60;;;11.48;;
10517;SDS011;5307;42.548;22.968;2023-03-01T13:23:06;14.30;;;9.45;;
10517;SDS011;5307;42.548;22.968;2023-03-01T13:25:35;16.48;;;8.73;;
10517;SDS011;5307;42.548;22.968;2023-03-01T13:43:23;27.55;;;13.75;;
10517;SDS011;5307;42.548;22.968;2023-03-01T13:45:55;14.00;;;9.88;;
10517;SDS011;5307;42.548;22.968;2023-03-01T13:48:23;15.48;;;9.23;;
10517;SDS011;5307;42.548;22.968;2023-03-01T13:50:54;10.70;;;7.57;;
10517;SDS011;5307;42.548;22.968;2023-03-01T13:53:26;18.95;;;9.32;;
10517;SDS011;5307;42.548;22.968;2023-03-01T13:55:58;20.38;;;10.10;;
10517;SDS011;5307;42.548;22.968;2023-03-01T13:58:28;18.10;;;10.05;;
10517;SDS011;5307;42.548;22.968;2023-03-01T14:01:00;16.35;;;9.90;;
10517;SDS011;5307;42.548;22.968;2023-03-01T14:03:30;30.52;;;14.48;;
10517;SDS011;5307;42.548;22.968;2023-03-01T14:06:03;16.70;;;10.48;;
10517;SDS011;5307;42.548;22.968;2023-03-01T14:08:35;17.30;;;8.13;;
10517;SDS011;5307;42.548;22.968;2023-03-01T14:14:13;17.83;;;10.50;;
10517;SDS011;5307;42.548;22.968;2023-03-01T14:17:00;11.45;;;8.00;;
10517;SDS011;5307;42.548;22.968;2023-03-01T14:19:39;14.10;;;8.57;;
10517;SDS011;5307;42.548;22.968;2023-03-01T14:22:13;12.00;;;8.18;;
10517;SDS011;5307;42.548;22.968;2023-03-01T14:24:46;18.23;;;9.15;;
10517;SDS011;5307;42.548;22.968;2023-03-01T14:27:15;16.95;;;10.10;;
10517;SDS011;5307;42.548;22.968;2023-03-01T14:29:43;13.27;;;9.00;;
10517;SDS011;5307;42.548;22.968;2023-03-01T14:32:20;38.00;;;18.65;;
10517;SDS011;5307;42.548;22.968;2023-03-01T14:34:51;25.35;;;14.75;;
10517;SDS011;5307;42.548;22.968;2023-03-01T14:37:20;24.02;;;13.05;;
10517;SDS011;5307;42.548;22.968;2023-03-01T14:39:49;14.95;;;8.98;;
10517;SDS011;5307;42.548;22.968;2023-03-01T14:42:16;13.50;;;8.15;;
10517;SDS011;5307;42.548;22.968;2023-03-01T14:44:45;19.00;;;10.75;;
10517;SDS011;5307;42.548;22.968;2023-03-01T14:47:16;18.85;;;11.15;;
10517;SDS011;5307;42.548;22.968;2023-03-01T14:49:52;19.30;;;9.63;;
10517;SDS011;5307;42.548;22.968;2023-03-01T14:52:25;12.50;;;7.55;;
10517;SDS011;5307;42.548;22.968;2023-03-01T14:55:00;12.80;;;6.80;;
10517;SDS011;5307;42.548;22.968;2023-03-01T14:57:30;16.35;;;9.10;;
10517;SDS011;5307;42.548;22.968;2023-03-01T14:59:57;31.08;;;14.70;;
10517;SDS011;5307;42.548;22.968;2023-03-01T15:02:29;31.05;;;15.23;;
10517;SDS011;5307;42.548;22.968;2023-03-01T15:05:02;16.17;;;8.52;;
10517;SDS011;5307;42.548;22.968;2023-03-01T15:07:31;16.38;;;9.32;;
10517;SDS011;5307;42.548;22.968;2023-03-01T15:10:02;29.67;;;14.07;;
10517;SDS011;5307;42.548;22.968;2023-03-01T15:12:37;11.07;;;8.00;;
10517;SDS011;5307;42.548;22.968;2023-03-01T15:15:22;15.73;;;9.25;;
10517;SDS011;5307;42.548;22.968;2023-03-01T15:18:00;14.45;;;8.82;;
10517;SDS011;5307;42.548;22.968;2023-03-01T15:20:31;10.18;;;7.13;;
10517;SDS011;5307;42.548;22.968;2023-03-01T15:23:02;37.28;;;20.88;;
10517;SDS011;5307;42.548;22.968;2023-03-01T15:25:30;21.33;;;13.35;;
10517;SDS011;5307;42.548;22.968;2023-03-01T15:27:58;28.63;;;21.05;;
10517;SDS011;5307;42.548;22.968;2023-03-01T15:30:41;31.10;;;20.00;;
10517;SDS011;5307;42.548;22.968;2023-03-01T15:33:18;31.83;;;19.90;;